sensor_id;sensor_type;location;lat;lon;timestamp;temperature;humidity
47414;DHT22;33163;0.000;0.000;2023-09-19T00:00:07;22.50;82.50
47414;DHT22;33163;0.000;0.000;2023-09-19T00:02:34;22.50;82.70
47414;DHT22;33163;0.000;0.000;2023-09-19T00:05:02;22.50;82.50
47414;DHT22;33163;0.000;0.000;2023-09-19T00:07:29;22.50;82.60
47414;DHT22;33163;0.000;0.000;2023-09-19T00:09:55;22.50;82.50
47414;DHT22;33163;0.000;0.000;2023-09-19T00:12:22;22.50;82.50
47414;DHT22;33163;0.000;0.000;2023-09-19T00:14:50;22.50;82.50
47414;DHT22;33163;0.000;0.000;2023-09-19T00:17:18;22.50;82.50
47414;DHT22;33163;0.000;0.000;2023-09-19T00:19:45;22.50;82.50
47414;DHT22;33163;0.000;0.000;2023-09-19T00:22:12;22.50;82.10
47414;DHT22;33163;0.000;0.000;2023-09-19T00:24:41;22.50;81.90
47414;DHT22;33163;0.000;0.000;2023-09-19T00:27:08;22.50;82.70
47414;DHT22;33163;0.000;0.000;2023-09-19T00:29:34;22.50;82.00
47414;DHT22;33163;0.000;0.000;2023-09-19T00:32:03;22.50;82.00
47414;DHT22;33163;0.000;0.000;2023-09-19T00:34:31;22.50;81.90
47414;DHT22;33163;0.000;0.000;2023-09-19T00:36:59;22.50;82.00
47414;DHT22;33163;0.000;0.000;2023-09-19T00:39:26;22.50;82.00
47414;DHT22;33163;0.000;0.000;2023-09-19T00:41:56;22.50;82.00
47414;DHT22;33163;0.000;0.000;2023-09-19T00:44:23;22.50;82.10
47414;DHT22;33163;0.000;0.000;2023-09-19T00:46:50;22.40;81.80
47414;DHT22;33163;0.000;0.000;2023-09-19T00:49:20;22.40;81.60
47414;DHT22;33163;0.000;0.000;2023-09-19T00:51:48;22.40;81.60
47414;DHT22;33163;0.000;0.000;2023-09-19T00:54:16;22.40;81.80
47414;DHT22;33163;0.000;0.000;2023-09-19T00:56:45;22.40;81.70
47414;DHT22;33163;0.000;0.000;2023-09-19T00:59:14;22.40;81.70
47414;DHT22;33163;0.000;0.000;2023-09-19T01:01:41;22.40;81.70
47414;DHT22;33163;0.000;0.000;2023-09-19T01:04:11;22.40;82.10
47414;DHT22;33163;0.000;0.000;2023-09-19T01:06:39;22.40;81.80
47414;DHT22;33163;0.000;0.000;2023-09-19T01:09:06;22.40;81.90
47414;DHT22;33163;0.000;0.000;2023-09-19T01:11:37;22.40;81.20
47414;DHT22;33163;0.000;0.000;2023-09-19T01:14:15;22.40;81.40
47414;DHT22;33163;0.000;0.000;2023-09-19T01:16:50;22.40;81.20
47414;DHT22;33163;0.000;0.000;2023-09-19T01:19:26;22.40;81.10
47414;DHT22;33163;0.000;0.000;2023-09-19T01:22:12;22.40;81.20
47414;DHT22;33163;0.000;0.000;2023-09-19T01:25:03;22.30;81.00
47414;DHT22;33163;0.000;0.000;2023-09-19T01:27:52;22.40;81.20
47414;DHT22;33163;0.000;0.000;2023-09-19T01:30:27;22.40;81.00
47414;DHT22;33163;0.000;0.000;2023-09-19T01:32:59;22.30;80.90
47414;DHT22;33163;0.000;0.000;2023-09-19T01:35:26;22.30;80.90
47414;DHT22;33163;0.000;0.000;2023-09-19T01:37:53;22.40;80.90
47414;DHT22;33163;0.000;0.000;2023-09-19T01:40:21;22.40;80.90
47414;DHT22;33163;0.000;0.000;2023-09-19T01:42:52;22.30;81.00
47414;DHT22;33163;0.000;0.000;2023-09-19T01:45:29;22.30;80.90
47414;DHT22;33163;0.000;0.000;2023-09-19T01:48:11;22.30;80.90
47414;DHT22;33163;0.000;0.000;2023-09-19T01:50:43;22.30;80.90
47414;DHT22;33163;0.000;0.000;2023-09-19T01:53:15;22.30;80.90
47414;DHT22;33163;0.000;0.000;2023-09-19T01:55:46;22.30;80.70
47414;DHT22;33163;0.000;0.000;2023-09-19T01:58:17;22.30;80.70
47414;DHT22;33163;0.000;0.000;2023-09-19T02:00:49;22.30;80.90
47414;DHT22;33163;0.000;0.000;2023-09-19T02:03:18;22.30;80.90
47414;DHT22;33163;0.000;0.000;2023-09-19T02:05:49;22.30;80.90
47414;DHT22;33163;0.000;0.000;2023-09-19T02:08:17;22.30;80.90
47414;DHT22;33163;0.000;0.000;2023-09-19T02:10:44;22.30;80.70
47414;DHT22;33163;0.000;0.000;2023-09-19T02:13:15;22.30;80.80
47414;DHT22;33163;0.000;0.000;2023-09-19T02:15:42;22.30;80.80
47414;DHT22;33163;0.000;0.000;2023-09-19T02:18:12;22.30;80.80
47414;DHT22;33163;0.000;0.000;2023-09-19T02:20:39;22.30;80.80
47414;DHT22;33163;0.000;0.000;2023-09-19T02:23:06;22.30;80.70
47414;DHT22;33163;0.000;0.000;2023-09-19T02:25:34;22.30;80.60
47414;DHT22;33163;0.000;0.000;2023-09-19T02:28:01;22.30;80.60
47414;DHT22;33163;0.000;0.000;2023-09-19T02:30:29;22.30;80.20
47414;DHT22;33163;0.000;0.000;2023-09-19T02:32:56;22.30;80.30
47414;DHT22;33163;0.000;0.000;2023-09-19T02:35:24;22.30;80.20
47414;DHT22;33163;0.000;0.000;2023-09-19T02:37:51;22.30;80.40
47414;DHT22;33163;0.000;0.000;2023-09-19T02:40:18;22.30;80.20
47414;DHT22;33163;0.000;0.000;2023-09-19T02:42:45;22.30;80.30
47414;DHT22;33163;0.000;0.000;2023-09-19T02:45:15;22.20;80.20
47414;DHT22;33163;0.000;0.000;2023-09-19T02:47:43;22.30;80.00
47414;DHT22;33163;0.000;0.000;2023-09-19T02:50:10;22.20;80.10
47414;DHT22;33163;0.000;0.000;2023-09-19T02:52:41;22.30;80.00
47414;DHT22;33163;0.000;0.000;2023-09-19T02:55:09;22.20;79.70
47414;DHT22;33163;0.000;0.000;2023-09-19T02:57:36;22.20;79.90
47414;DHT22;33163;0.000;0.000;2023-09-19T03:00:07;22.20;79.80
47414;DHT22;33163;0.000;0.000;2023-09-19T03:02:36;22.20;79.70
47414;DHT22;33163;0.000;0.000;2023-09-19T03:05:04;22.20;79.90
47414;DHT22;33163;0.000;0.000;2023-09-19T03:07:31;22.20;80.00
47414;DHT22;33163;0.000;0.000;2023-09-19T03:09:59;22.20;80.00
47414;DHT22;33163;0.000;0.000;2023-09-19T03:12:26;22.20;79.80
47414;DHT22;33163;0.000;0.000;2023-09-19T03:14:53;22.20;79.80
47414;DHT22;33163;0.000;0.000;2023-09-19T03:17:21;22.20;79.80
47414;DHT22;33163;0.000;0.000;2023-09-19T03:19:47;22.20;79.70
47414;DHT22;33163;0.000;0.000;2023-09-19T03:22:14;22.20;79.90
47414;DHT22;33163;0.000;0.000;2023-09-19T03:24:41;22.20;79.80
47414;DHT22;33163;0.000;0.000;2023-09-19T03:27:10;22.20;79.70
47414;DHT22;33163;0.000;0.000;2023-09-19T03:29:41;22.20;79.50
47414;DHT22;33163;0.000;0.000;2023-09-19T03:32:08;22.20;79.50
47414;DHT22;33163;0.000;0.000;2023-09-19T03:34:36;22.20;79.60
47414;DHT22;33163;0.000;0.000;2023-09-19T03:37:03;22.20;79.60
47414;DHT22;33163;0.000;0.000;2023-09-19T03:39:30;22.20;79.60
47414;DHT22;33163;0.000;0.000;2023-09-19T03:41:57;22.20;79.60
47414;DHT22;33163;0.000;0.000;2023-09-19T03:44:25;22.20;79.70
47414;DHT22;33163;0.000;0.000;2023-09-19T03:46:52;22.20;79.60
47414;DHT22;33163;0.000;0.000;2023-09-19T03:49:21;22.20;79.60
47414;DHT22;33163;0.000;0.000;2023-09-19T03:51:47;22.20;79.40
47414;DHT22;33163;0.000;0.000;2023-09-19T03:54:14;22.20;79.30
47414;DHT22;33163;0.000;0.000;2023-09-19T03:56:42;22.20;79.30
47414;DHT22;33163;0.000;0.000;2023-09-19T03:59:09;22.20;79.40
47414;DHT22;33163;0.000;0.000;2023-09-19T04:01:37;22.20;79.50
47414;DHT22;33163;0.000;0.000;2023-09-19T04:04:06;22.10;79.20
47414;DHT22;33163;0.000;0.000;2023-09-19T04:06:34;22.10;79.20
47414;DHT22;33163;0.000;0.000;2023-09-19T04:09:01;22.10;79.30
47414;DHT22;33163;0.000;0.000;2023-09-19T04:11:29;22.10;79.20
47414;DHT22;33163;0.000;0.000;2023-09-19T04:13:56;22.20;79.40
47414;DHT22;33163;0.000;0.000;2023-09-19T04:16:23;22.20;79.40
47414;DHT22;33163;0.000;0.000;2023-09-19T04:18:51;22.10;79.20
47414;DHT22;33163;0.000;0.000;2023-09-19T04:21:18;22.10;79.20
47414;DHT22;33163;0.000;0.000;2023-09-19T04:23:44;22.10;79.10
47414;DHT22;33163;0.000;0.000;2023-09-19T04:26:11;22.10;79.20
47414;DHT22;33163;0.000;0.000;2023-09-19T04:28:38;22.10;79.20
47414;DHT22;33163;0.000;0.000;2023-09-19T04:31:06;22.10;78.90
47414;DHT22;33163;0.000;0.000;2023-09-19T04:33:34;22.10;79.10
47414;DHT22;33163;0.000;0.000;2023-09-19T04:36:02;22.10;78.90
47414;DHT22;33163;0.000;0.000;2023-09-19T04:38:30;22.10;79.10
47414;DHT22;33163;0.000;0.000;2023-09-19T04:40:57;22.10;78.80
47414;DHT22;33163;0.000;0.000;2023-09-19T04:43:25;22.10;78.80
47414;DHT22;33163;0.000;0.000;2023-09-19T04:45:52;22.10;78.90
47414;DHT22;33163;0.000;0.000;2023-09-19T04:48:21;22.10;79.20
47414;DHT22;33163;0.000;0.000;2023-09-19T04:50:49;22.10;79.00
47414;DHT22;33163;0.000;0.000;2023-09-19T04:53:17;22.10;79.00
47414;DHT22;33163;0.000;0.000;2023-09-19T04:55:50;22.10;78.90
47414;DHT22;33163;0.000;0.000;2023-09-19T04:58:18;22.10;78.70
47414;DHT22;33163;0.000;0.000;2023-09-19T05:00:45;22.10;78.90
47414;DHT22;33163;0.000;0.000;2023-09-19T05:03:11;22.10;79.00
47414;DHT22;33163;0.000;0.000;2023-09-19T05:05:38;22.00;78.80
47414;DHT22;33163;0.000;0.000;2023-09-19T05:08:08;22.10;78.80
47414;DHT22;33163;0.000;0.000;2023-09-19T05:10:36;22.10;78.60
47414;DHT22;33163;0.000;0.000;2023-09-19T05:13:04;22.00;78.60
47414;DHT22;33163;0.000;0.000;2023-09-19T05:15:32;22.00;78.60
47414;DHT22;33163;0.000;0.000;2023-09-19T05:17:59;22.00;78.70
47414;DHT22;33163;0.000;0.000;2023-09-19T05:20:26;22.00;78.60
47414;DHT22;33163;0.000;0.000;2023-09-19T05:22:58;22.10;78.70
47414;DHT22;33163;0.000;0.000;2023-09-19T05:25:27;22.00;78.70
47414;DHT22;33163;0.000;0.000;2023-09-19T05:27:56;22.00;78.70
47414;DHT22;33163;0.000;0.000;2023-09-19T05:30:25;22.00;78.70
47414;DHT22;33163;0.000;0.000;2023-09-19T05:32:52;22.00;78.70
47414;DHT22;33163;0.000;0.000;2023-09-19T05:35:19;22.00;78.80
47414;DHT22;33163;0.000;0.000;2023-09-19T05:37:47;22.00;78.80
47414;DHT22;33163;0.000;0.000;2023-09-19T05:40:14;22.00;78.80
47414;DHT22;33163;0.000;0.000;2023-09-19T05:42:41;22.00;78.50
47414;DHT22;33163;0.000;0.000;2023-09-19T05:45:11;22.00;78.20
47414;DHT22;33163;0.000;0.000;2023-09-19T05:47:38;22.00;78.50
47414;DHT22;33163;0.000;0.000;2023-09-19T05:50:07;22.00;78.90
47414;DHT22;33163;0.000;0.000;2023-09-19T05:52:34;22.00;78.90
47414;DHT22;33163;0.000;0.000;2023-09-19T05:55:03;22.00;78.80
47414;DHT22;33163;0.000;0.000;2023-09-19T05:57:30;22.00;79.20
47414;DHT22;33163;0.000;0.000;2023-09-19T05:59:58;22.00;79.00
47414;DHT22;33163;0.000;0.000;2023-09-19T06:02:26;22.00;79.40
47414;DHT22;33163;0.000;0.000;2023-09-19T06:04:54;22.00;79.10
47414;DHT22;33163;0.000;0.000;2023-09-19T06:10:42;22.00;78.60
47414;DHT22;33163;0.000;0.000;2023-09-19T06:13:09;22.00;79.00
47414;DHT22;33163;0.000;0.000;2023-09-19T06:15:36;22.00;79.30
47414;DHT22;33163;0.000;0.000;2023-09-19T06:18:04;22.00;79.20
47414;DHT22;33163;0.000;0.000;2023-09-19T06:20:32;22.00;78.90
47414;DHT22;33163;0.000;0.000;2023-09-19T06:22:59;22.00;79.20
47414;DHT22;33163;0.000;0.000;2023-09-19T06:25:27;22.00;79.00
47414;DHT22;33163;0.000;0.000;2023-09-19T06:27:54;22.00;79.00
47414;DHT22;33163;0.000;0.000;2023-09-19T06:30:22;22.00;79.30
47414;DHT22;33163;0.000;0.000;2023-09-19T06:32:49;22.00;79.20
47414;DHT22;33163;0.000;0.000;2023-09-19T06:35:18;22.00;79.10
47414;DHT22;33163;0.000;0.000;2023-09-19T06:37:45;21.90;79.10
47414;DHT22;33163;0.000;0.000;2023-09-19T06:40:14;21.90;78.90
47414;DHT22;33163;0.000;0.000;2023-09-19T06:42:42;21.90;79.00
47414;DHT22;33163;0.000;0.000;2023-09-19T06:45:11;22.00;79.10
47414;DHT22;33163;0.000;0.000;2023-09-19T06:47:39;22.00;78.90
47414;DHT22;33163;0.000;0.000;2023-09-19T06:50:06;22.00;79.20
47414;DHT22;33163;0.000;0.000;2023-09-19T06:52:40;22.00;79.00
47414;DHT22;33163;0.000;0.000;2023-09-19T06:55:07;22.00;78.80
47414;DHT22;33163;0.000;0.000;2023-09-19T06:57:35;22.00;79.00
47414;DHT22;33163;0.000;0.000;2023-09-19T07:00:02;21.90;78.90
47414;DHT22;33163;0.000;0.000;2023-09-19T07:02:33;21.90;78.80
47414;DHT22;33163;0.000;0.000;2023-09-19T07:04:59;22.00;78.80
47414;DHT22;33163;0.000;0.000;2023-09-19T07:07:26;22.00;78.80
47414;DHT22;33163;0.000;0.000;2023-09-19T07:09:54;22.00;78.60
47414;DHT22;33163;0.000;0.000;2023-09-19T07:12:22;22.00;78.70
47414;DHT22;33163;0.000;0.000;2023-09-19T07:14:49;22.00;78.50
47414;DHT22;33163;0.000;0.000;2023-09-19T07:17:15;22.00;78.40
47414;DHT22;33163;0.000;0.000;2023-09-19T07:19:44;22.00;78.40
47414;DHT22;33163;0.000;0.000;2023-09-19T07:22:11;22.00;78.30
47414;DHT22;33163;0.000;0.000;2023-09-19T07:24:38;22.00;78.30
47414;DHT22;33163;0.000;0.000;2023-09-19T07:27:06;22.00;78.40
47414;DHT22;33163;0.000;0.000;2023-09-19T07:29:34;22.00;78.20
47414;DHT22;33163;0.000;0.000;2023-09-19T07:32:01;22.10;78.20
47414;DHT22;33163;0.000;0.000;2023-09-19T07:34:27;22.10;78.10
47414;DHT22;33163;0.000;0.000;2023-09-19T07:36:54;22.10;78.00
47414;DHT22;33163;0.000;0.000;2023-09-19T07:39:22;22.10;78.00
47414;DHT22;33163;0.000;0.000;2023-09-19T07:41:49;22.10;78.00
47414;DHT22;33163;0.000;0.000;2023-09-19T07:44:17;22.10;78.00
47414;DHT22;33163;0.000;0.000;2023-09-19T07:46:44;22.10;77.90
47414;DHT22;33163;0.000;0.000;2023-09-19T07:49:11;22.10;77.90
47414;DHT22;33163;0.000;0.000;2023-09-19T07:51:38;22.20;77.80
47414;DHT22;33163;0.000;0.000;2023-09-19T07:54:05;22.20;77.80
47414;DHT22;33163;0.000;0.000;2023-09-19T07:56:33;22.20;77.70
47414;DHT22;33163;0.000;0.000;2023-09-19T07:59:00;22.20;77.80
47414;DHT22;33163;0.000;0.000;2023-09-19T08:01:28;22.20;77.80
47414;DHT22;33163;0.000;0.000;2023-09-19T08:03:55;22.30;77.80
47414;DHT22;33163;0.000;0.000;2023-09-19T08:06:22;22.30;77.80
47414;DHT22;33163;0.000;0.000;2023-09-19T08:08:51;22.30;77.80
47414;DHT22;33163;0.000;0.000;2023-09-19T08:11:19;22.30;77.80
47414;DHT22;33163;0.000;0.000;2023-09-19T08:13:47;22.30;77.80
47414;DHT22;33163;0.000;0.000;2023-09-19T08:16:14;22.30;77.90
47414;DHT22;33163;0.000;0.000;2023-09-19T08:18:42;22.30;77.90
47414;DHT22;33163;0.000;0.000;2023-09-19T08:21:11;22.30;77.80
47414;DHT22;33163;0.000;0.000;2023-09-19T08:23:38;22.30;77.90
47414;DHT22;33163;0.000;0.000;2023-09-19T08:26:05;22.30;77.90
47414;DHT22;33163;0.000;0.000;2023-09-19T08:28:33;22.30;77.90
47414;DHT22;33163;0.000;0.000;2023-09-19T08:31:02;22.30;78.00
47414;DHT22;33163;0.000;0.000;2023-09-19T08:33:31;22.30;78.00
47414;DHT22;33163;0.000;0.000;2023-09-19T08:35:59;22.20;78.00
47414;DHT22;33163;0.000;0.000;2023-09-19T08:38:25;22.20;78.10
47414;DHT22;33163;0.000;0.000;2023-09-19T08:40:57;22.20;77.90
47414;DHT22;33163;0.000;0.000;2023-09-19T08:43:24;22.20;78.00
47414;DHT22;33163;0.000;0.000;2023-09-19T08:45:51;22.10;77.80
47414;DHT22;33163;0.000;0.000;2023-09-19T08:48:23;22.10;77.80
47414;DHT22;33163;0.000;0.000;2023-09-19T08:50:52;22.10;78.00
47414;DHT22;33163;0.000;0.000;2023-09-19T08:53:31;22.10;78.10
47414;DHT22;33163;0.000;0.000;2023-09-19T08:55:59;22.10;78.30
47414;DHT22;33163;0.000;0.000;2023-09-19T08:58:31;22.10;78.30
47414;DHT22;33163;0.000;0.000;2023-09-19T09:01:01;22.10;78.30
47414;DHT22;33163;0.000;0.000;2023-09-19T09:03:32;22.10;78.10
47414;DHT22;33163;0.000;0.000;2023-09-19T09:06:16;22.20;78.10
47414;DHT22;33163;0.000;0.000;2023-09-19T09:08:45;22.20;78.20
47414;DHT22;33163;0.000;0.000;2023-09-19T09:11:13;22.20;78.10
47414;DHT22;33163;0.000;0.000;2023-09-19T09:13:41;22.20;78.30
47414;DHT22;33163;0.000;0.000;2023-09-19T09:16:09;22.20;78.20
47414;DHT22;33163;0.000;0.000;2023-09-19T09:18:36;22.20;78.20
47414;DHT22;33163;0.000;0.000;2023-09-19T09:21:03;22.20;78.20
47414;DHT22;33163;0.000;0.000;2023-09-19T09:23:31;22.20;78.30
47414;DHT22;33163;0.000;0.000;2023-09-19T09:26:00;22.20;78.30
47414;DHT22;33163;0.000;0.000;2023-09-19T09:28:30;22.20;78.30
47414;DHT22;33163;0.000;0.000;2023-09-19T09:30:58;22.20;78.20
47414;DHT22;33163;0.000;0.000;2023-09-19T09:33:26;22.20;78.20
47414;DHT22;33163;0.000;0.000;2023-09-19T09:35:55;22.20;78.10
47414;DHT22;33163;0.000;0.000;2023-09-19T09:38:25;22.20;78.40
47414;DHT22;33163;0.000;0.000;2023-09-19T09:40:53;22.20;78.20
47414;DHT22;33163;0.000;0.000;2023-09-19T09:43:28;22.20;78.20
47414;DHT22;33163;0.000;0.000;2023-09-19T09:46:09;22.30;78.30
47414;DHT22;33163;0.000;0.000;2023-09-19T09:48:59;22.30;78.30
47414;DHT22;33163;0.000;0.000;2023-09-19T09:51:49;22.20;78.30
47414;DHT22;33163;0.000;0.000;2023-09-19T09:54:25;22.30;78.30
47414;DHT22;33163;0.000;0.000;2023-09-19T09:57:00;22.20;78.40
47414;DHT22;33163;0.000;0.000;2023-09-19T09:59:50;22.20;78.30
47414;DHT22;33163;0.000;0.000;2023-09-19T10:02:19;22.20;78.30
47414;DHT22;33163;0.000;0.000;2023-09-19T10:04:54;22.20;78.30
47414;DHT22;33163;0.000;0.000;2023-09-19T10:07:33;22.20;78.40
47414;DHT22;33163;0.000;0.000;2023-09-19T10:10:02;22.20;78.40
47414;DHT22;33163;0.000;0.000;2023-09-19T10:12:43;22.20;78.30
47414;DHT22;33163;0.000;0.000;2023-09-19T10:15:12;22.20;78.40
47414;DHT22;33163;0.000;0.000;2023-09-19T10:17:42;22.30;78.40
47414;DHT22;33163;0.000;0.000;2023-09-19T10:20:12;22.20;78.30
47414;DHT22;33163;0.000;0.000;2023-09-19T10:22:59;22.30;78.30
47414;DHT22;33163;0.000;0.000;2023-09-19T10:25:27;22.20;78.30
47414;DHT22;33163;0.000;0.000;2023-09-19T10:27:56;22.30;78.20
47414;DHT22;33163;0.000;0.000;2023-09-19T10:30:25;22.30;78.30
47414;DHT22;33163;0.000;0.000;2023-09-19T10:33:00;22.30;78.40
47414;DHT22;33163;0.000;0.000;2023-09-19T10:35:27;22.30;78.40
47414;DHT22;33163;0.000;0.000;2023-09-19T10:37:56;22.30;78.40
47414;DHT22;33163;0.000;0.000;2023-09-19T10:40:24;22.30;78.40
47414;DHT22;33163;0.000;0.000;2023-09-19T10:43:00;22.30;78.30
47414;DHT22;33163;0.000;0.000;2023-09-19T10:45:31;22.30;78.30
47414;DHT22;33163;0.000;0.000;2023-09-19T10:47:58;22.30;78.30
47414;DHT22;33163;0.000;0.000;2023-09-19T10:50:25;22.30;79.00
47414;DHT22;33163;0.000;0.000;2023-09-19T10:52:54;22.30;78.30
47414;DHT22;33163;0.000;0.000;2023-09-19T10:55:28;22.30;78.50
47414;DHT22;33163;0.000;0.000;2023-09-19T10:57:55;22.30;78.40
47414;DHT22;33163;0.000;0.000;2023-09-19T11:00:50;22.30;78.60
47414;DHT22;33163;0.000;0.000;2023-09-19T11:03:19;22.30;78.50
47414;DHT22;33163;0.000;0.000;2023-09-19T11:06:08;22.30;78.50
47414;DHT22;33163;0.000;0.000;2023-09-19T11:09:01;22.30;78.50
47414;DHT22;33163;0.000;0.000;2023-09-19T11:11:48;22.30;78.40
47414;DHT22;33163;0.000;0.000;2023-09-19T11:14:39;22.30;78.40
47414;DHT22;33163;0.000;0.000;2023-09-19T11:17:35;22.30;78.40
47414;DHT22;33163;0.000;0.000;2023-09-19T11:20:32;22.30;78.40
47414;DHT22;33163;0.000;0.000;2023-09-19T11:23:23;22.30;78.50
47414;DHT22;33163;0.000;0.000;2023-09-19T11:25:51;22.30;78.50
47414;DHT22;33163;0.000;0.000;2023-09-19T11:28:35;22.20;78.40
47414;DHT22;33163;0.000;0.000;2023-09-19T11:31:40;22.30;78.50
47414;DHT22;33163;0.000;0.000;2023-09-19T11:34:46;22.30;78.50
47414;DHT22;33163;0.000;0.000;2023-09-19T11:40:46;22.20;78.50
47414;DHT22;33163;0.000;0.000;2023-09-19T11:43:30;22.20;78.60
47414;DHT22;33163;0.000;0.000;2023-09-19T11:46:06;22.20;78.60
47414;DHT22;33163;0.000;0.000;2023-09-19T11:48:35;22.20;78.70
47414;DHT22;33163;0.000;0.000;2023-09-19T11:51:11;22.20;78.70
47414;DHT22;33163;0.000;0.000;2023-09-19T11:53:45;22.20;78.60
47414;DHT22;33163;0.000;0.000;2023-09-19T11:56:14;22.20;78.60
47414;DHT22;33163;0.000;0.000;2023-09-19T11:58:43;22.20;78.60
47414;DHT22;33163;0.000;0.000;2023-09-19T12:01:13;22.20;78.60
47414;DHT22;33163;0.000;0.000;2023-09-19T12:03:43;22.20;78.70
47414;DHT22;33163;0.000;0.000;2023-09-19T12:06:15;22.20;78.70
47414;DHT22;33163;0.000;0.000;2023-09-19T12:08:42;22.20;78.80
47414;DHT22;33163;0.000;0.000;2023-09-19T12:11:13;22.20;78.70
47414;DHT22;33163;0.000;0.000;2023-09-19T12:13:42;22.20;78.80
47414;DHT22;33163;0.000;0.000;2023-09-19T12:16:13;22.20;78.70
47414;DHT22;33163;0.000;0.000;2023-09-19T12:18:41;22.20;78.70
47414;DHT22;33163;0.000;0.000;2023-09-19T12:21:24;22.20;78.80
47414;DHT22;33163;0.000;0.000;2023-09-19T12:23:59;22.20;78.90
47414;DHT22;33163;0.000;0.000;2023-09-19T12:26:27;22.20;78.80
47414;DHT22;33163;0.000;0.000;2023-09-19T12:28:54;22.20;78.80
47414;DHT22;33163;0.000;0.000;2023-09-19T12:31:22;22.20;78.90
47414;DHT22;33163;0.000;0.000;2023-09-19T12:33:53;22.20;78.90
47414;DHT22;33163;0.000;0.000;2023-09-19T12:36:22;22.20;78.90
47414;DHT22;33163;0.000;0.000;2023-09-19T12:38:54;22.20;78.80
47414;DHT22;33163;0.000;0.000;2023-09-19T12:41:22;22.20;78.80
47414;DHT22;33163;0.000;0.000;2023-09-19T12:43:48;22.20;78.80
47414;DHT22;33163;0.000;0.000;2023-09-19T12:46:20;22.20;78.80
47414;DHT22;33163;0.000;0.000;2023-09-19T12:49:16;22.20;78.80
47414;DHT22;33163;0.000;0.000;2023-09-19T12:51:45;22.20;78.90
47414;DHT22;33163;0.000;0.000;2023-09-19T12:54:12;22.20;78.90
47414;DHT22;33163;0.000;0.000;2023-09-19T12:56:41;22.20;79.00
47414;DHT22;33163;0.000;0.000;2023-09-19T12:59:11;22.20;78.90
47414;DHT22;33163;0.000;0.000;2023-09-19T13:01:39;22.20;79.00
47414;DHT22;33163;0.000;0.000;2023-09-19T13:04:14;22.20;78.90
47414;DHT22;33163;0.000;0.000;2023-09-19T13:06:45;22.20;78.90
47414;DHT22;33163;0.000;0.000;2023-09-19T13:09:14;22.20;79.00
47414;DHT22;33163;0.000;0.000;2023-09-19T13:11:42;22.20;79.00
47414;DHT22;33163;0.000;0.000;2023-09-19T13:14:18;22.20;78.90
47414;DHT22;33163;0.000;0.000;2023-09-19T13:17:00;22.20;78.90
47414;DHT22;33163;0.000;0.000;2023-09-19T13:19:45;22.20;79.00
47414;DHT22;33163;0.000;0.000;2023-09-19T13:22:38;22.20;78.90
47414;DHT22;33163;0.000;0.000;2023-09-19T13:25:06;22.20;78.90
47414;DHT22;33163;0.000;0.000;2023-09-19T13:27:34;22.10;78.90
47414;DHT22;33163;0.000;0.000;2023-09-19T13:30:00;22.10;79.00
47414;DHT22;33163;0.000;0.000;2023-09-19T13:32:27;22.10;78.90
47414;DHT22;33163;0.000;0.000;2023-09-19T13:34:54;22.10;79.50
47414;DHT22;33163;0.000;0.000;2023-09-19T13:37:21;22.10;79.00
47414;DHT22;33163;0.000;0.000;2023-09-19T13:39:49;22.10;79.00
47414;DHT22;33163;0.000;0.000;2023-09-19T13:42:15;22.10;79.60
47414;DHT22;33163;0.000;0.000;2023-09-19T13:44:44;22.10;78.90
47414;DHT22;33163;0.000;0.000;2023-09-19T13:47:10;22.10;79.20
47414;DHT22;33163;0.000;0.000;2023-09-19T13:49:39;22.10;78.90
47414;DHT22;33163;0.000;0.000;2023-09-19T13:52:06;22.10;78.90
47414;DHT22;33163;0.000;0.000;2023-09-19T13:54:32;22.10;78.90
47414;DHT22;33163;0.000;0.000;2023-09-19T13:57:01;22.10;79.00
47414;DHT22;33163;0.000;0.000;2023-09-19T13:59:27;22.10;78.90
47414;DHT22;33163;0.000;0.000;2023-09-19T14:01:56;22.10;79.00
47414;DHT22;33163;0.000;0.000;2023-09-19T14:04:23;22.10;79.10
47414;DHT22;33163;0.000;0.000;2023-09-19T14:06:50;22.10;79.10
47414;DHT22;33163;0.000;0.000;2023-09-19T14:09:16;22.10;79.20
47414;DHT22;33163;0.000;0.000;2023-09-19T14:11:45;22.10;79.20
47414;DHT22;33163;0.000;0.000;2023-09-19T14:14:14;22.10;79.20
47414;DHT22;33163;0.000;0.000;2023-09-19T14:16:40;22.10;79.30
47414;DHT22;33163;0.000;0.000;2023-09-19T14:19:07;22.10;79.30
47414;DHT22;33163;0.000;0.000;2023-09-19T14:21:34;22.10;79.40
47414;DHT22;33163;0.000;0.000;2023-09-19T14:24:05;22.10;79.50
47414;DHT22;33163;0.000;0.000;2023-09-19T14:26:34;22.10;79.50
47414;DHT22;33163;0.000;0.000;2023-09-19T14:29:01;22.10;79.50
47414;DHT22;33163;0.000;0.000;2023-09-19T14:31:29;22.10;79.60
47414;DHT22;33163;0.000;0.000;2023-09-19T14:33:57;22.10;79.60
47414;DHT22;33163;0.000;0.000;2023-09-19T14:36:25;22.10;79.70
47414;DHT22;33163;0.000;0.000;2023-09-19T14:38:52;22.10;79.70
47414;DHT22;33163;0.000;0.000;2023-09-19T14:41:20;22.00;79.70
47414;DHT22;33163;0.000;0.000;2023-09-19T14:43:48;22.10;79.60
47414;DHT22;33163;0.000;0.000;2023-09-19T14:46:15;22.00;79.60
47414;DHT22;33163;0.000;0.000;2023-09-19T14:48:43;22.00;79.60
47414;DHT22;33163;0.000;0.000;2023-09-19T14:51:11;22.00;79.70
47414;DHT22;33163;0.000;0.000;2023-09-19T14:53:38;22.00;79.70
47414;DHT22;33163;0.000;0.000;2023-09-19T14:56:06;22.10;79.70
47414;DHT22;33163;0.000;0.000;2023-09-19T14:58:33;22.10;79.70
47414;DHT22;33163;0.000;0.000;2023-09-19T15:01:04;22.00;79.60
47414;DHT22;33163;0.000;0.000;2023-09-19T15:03:31;22.00;79.50
47414;DHT22;33163;0.000;0.000;2023-09-19T15:06:01;22.10;79.60
47414;DHT22;33163;0.000;0.000;2023-09-19T15:08:28;22.10;79.60
47414;DHT22;33163;0.000;0.000;2023-09-19T15:10:54;22.00;79.60
47414;DHT22;33163;0.000;0.000;2023-09-19T15:13:21;22.00;79.60
47414;DHT22;33163;0.000;0.000;2023-09-19T15:15:49;22.00;79.60
47414;DHT22;33163;0.000;0.000;2023-09-19T15:18:16;22.00;79.70
47414;DHT22;33163;0.000;0.000;2023-09-19T15:20:43;22.00;79.80
47414;DHT22;33163;0.000;0.000;2023-09-19T15:23:11;22.00;79.70
47414;DHT22;33163;0.000;0.000;2023-09-19T15:25:38;22.00;79.70
47414;DHT22;33163;0.000;0.000;2023-09-19T15:28:06;22.00;79.70
47414;DHT22;33163;0.000;0.000;2023-09-19T15:30:37;22.00;79.70
47414;DHT22;33163;0.000;0.000;2023-09-19T15:33:04;22.00;79.80
47414;DHT22;33163;0.000;0.000;2023-09-19T15:35:30;22.00;79.70
47414;DHT22;33163;0.000;0.000;2023-09-19T15:37:57;22.00;79.80
47414;DHT22;33163;0.000;0.000;2023-09-19T15:40:27;22.00;79.90
47414;DHT22;33163;0.000;0.000;2023-09-19T15:42:54;22.00;79.90
47414;DHT22;33163;0.000;0.000;2023-09-19T15:45:21;22.00;79.90
47414;DHT22;33163;0.000;0.000;2023-09-19T15:47:48;22.00;79.90
47414;DHT22;33163;0.000;0.000;2023-09-19T15:50:15;22.00;79.90
47414;DHT22;33163;0.000;0.000;2023-09-19T15:52:42;22.00;80.00
47414;DHT22;33163;0.000;0.000;2023-09-19T15:55:09;22.00;80.00
47414;DHT22;33163;0.000;0.000;2023-09-19T15:57:38;22.00;80.00
47414;DHT22;33163;0.000;0.000;2023-09-19T16:00:06;22.00;80.00
47414;DHT22;33163;0.000;0.000;2023-09-19T16:02:38;22.00;80.40
47414;DHT22;33163;0.000;0.000;2023-09-19T16:05:05;22.00;80.10
47414;DHT22;33163;0.000;0.000;2023-09-19T16:07:33;22.00;80.10